Cathma — PJTL — position and weather

sailwx.info

Track history (hours):
 
Tides and Currents Weather Stations Pressure Air Temp Water Temp Dewpoint Dewpoint Depression Visibility Wind Speed Wind Dir Waves Ship Positions

Cathma

Last reported at 2016-Dec-11 03:32 UTC. Time now 2016-Dec-11 04:16 UTC.
Position N 51°54' E 004°27'.

Length 112 m; draft 3.6 m.

Type: Cargo ship. MMSI: 306832000.

Date/timePositionNaut miles runAvg speedWind from/ knotsBaromVisibWave heightAir tempDewpointWater temp
2016-Dec-11 03:32N 51°54' E 004°27'0 0.0
2016-Dec-11 02:31N 51°54' E 004°27'0 0.0
2016-Dec-11 01:31N 51°54' E 004°27'0 0.0
2016-Dec-11 00:33N 51°54' E 004°27'0 0.0
2016-Dec-10 23:33N 51°54' E 004°27'0 0.0
2016-Dec-10 22:33N 51°54' E 004°27'0 0.0
2016-Dec-10 21:32N 51°54' E 004°27'0 0.0
2016-Dec-10 20:32N 51°54' E 004°27'3 2.7
2016-Dec-10 19:33N 51°54' E 004°23'9 9.2
2016-Dec-10 18:33N 51°58' E 004°09'1010.2
2016-Dec-10 17:33N 52°00' E 003°53'9 8.7
2016-Dec-10 16:33N 52°08' E 003°46'187 8.9
2016-Dec-09 19:33N 53°48' E 008°08'1111.2
2016-Dec-09 18:33N 53°41' E 008°22'1010.1
2016-Dec-09 17:33N 53°33' E 008°33'9 8.6
2016-Dec-09 16:33N 53°25' E 008°30'5 4.9
2016-Dec-09 15:33N 53°20' E 008°30'0 0.1
2016-Dec-09 14:28N 53°20' E 008°30'0 0.0
2016-Dec-09 13:31N 53°20' E 008°30'0 0.0
2016-Dec-09 12:33N 53°20' E 008°30'0 0.0
2016-Dec-09 11:30N 53°20' E 008°30'0 0.0
2016-Dec-09 10:17N 53°20' E 008°30'0 0.0
2016-Dec-09 09:32N 53°20' E 008°30'0 0.0
2016-Dec-09 08:32N 53°20' E 008°30'0 0.0
2016-Dec-09 07:28N 53°20' E 008°30'0 0.0
2016-Dec-09 06:31N 53°20' E 008°30'0 0.0
2016-Dec-09 05:33N 53°20' E 008°30'0 0.0
2016-Dec-09 04:33N 53°20' E 008°30'0 0.0
2016-Dec-09 03:32N 53°20' E 008°30'0 0.0
2016-Dec-09 02:26N 53°20' E 008°30'0 0.0
2016-Dec-09 00:31N 53°20' E 008°30'0 0.0
2016-Dec-08 23:31N 53°20' E 008°30'0 0.0
2016-Dec-08 22:27N 53°20' E 008°30'0 0.0
2016-Dec-08 21:27N 53°20' E 008°30'0 0.0
2016-Dec-08 20:11N 53°20' E 008°30'0 0.0
2016-Dec-08 19:29N 53°20' E 008°30'0 0.0
2016-Dec-08 18:31N 53°20' E 008°30'0 0.0
2016-Dec-08 17:31N 53°20' E 008°30'0 0.0
2016-Dec-08 16:28N 53°20' E 008°30'0 0.0
2016-Dec-08 15:33N 53°20' E 008°30'0 0.0
2016-Dec-08 14:33N 53°20' E 008°30'0 0.0
2016-Dec-08 13:14N 53°20' E 008°30'0 0.0
2016-Dec-08 12:32N 53°20' E 008°30'0 0.0
2016-Dec-08 11:28N 53°20' E 008°30'0 0.0
2016-Dec-08 10:31N 53°20' E 008°30'0 0.0
2016-Dec-08 09:31N 53°20' E 008°30'0 0.0
2016-Dec-08 08:33N 53°20' E 008°30'0 0.0
2016-Dec-08 07:27N 53°20' E 008°30'0 0.0
2016-Dec-08 06:23N 53°20' E 008°30'0 0.0
2016-Dec-08 05:32N 53°20' E 008°30'0 0.0
2016-Dec-08 04:19N 53°20' E 008°30'0 0.0
2016-Dec-08 03:31N 53°20' E 008°30'0 0.0
2016-Dec-08 02:31N 53°20' E 008°30'0 0.0
2016-Dec-08 01:33N 53°20' E 008°30'0 0.0
2016-Dec-08 00:33N 53°20' E 008°30'0 0.0
2016-Dec-07 23:26N 53°20' E 008°30'0 0.0
2016-Dec-07 22:32N 53°20' E 008°30'0 0.0
2016-Dec-07 21:31N 53°20' E 008°30'0 0.0
2016-Dec-07 20:31N 53°20' E 008°30'0 0.0
2016-Dec-07 19:34N 53°20' E 008°30'0 0.1
2016-Dec-07 18:33N 53°20' E 008°30'0 0.0
2016-Dec-07 17:33N 53°20' E 008°30'0 0.0
2016-Dec-07 16:32N 53°20' E 008°30'0 0.0
2016-Dec-07 15:32N 53°20' E 008°30'0 0.0
2016-Dec-07 14:31N 53°20' E 008°30'0 0.0
2016-Dec-07 13:31N 53°20' E 008°30'0 0.0
2016-Dec-07 12:33N 53°20' E 008°30'0 0.0
2016-Dec-07 11:33N 53°20' E 008°30'0 0.0
2016-Dec-07 10:33N 53°20' E 008°30'0 0.0
2016-Dec-07 09:32N 53°20' E 008°30'0 0.0
2016-Dec-07 08:32N 53°20' E 008°30'0 0.0
2016-Dec-07 07:31N 53°20' E 008°30'0 0.0
2016-Dec-07 06:31N 53°20' E 008°30'0 0.0
2016-Dec-07 05:33N 53°20' E 008°30'0 0.0
2016-Dec-07 04:33N 53°20' E 008°30'0 0.0
2016-Dec-07 03:33N 53°20' E 008°30'0 0.0
2016-Dec-07 02:32N 53°20' E 008°30'0 0.0
2016-Dec-07 01:32N 53°20' E 008°30'0 0.0
2016-Dec-07 00:31N 53°20' E 008°30'0 0.0
2016-Dec-06 23:31N 53°20' E 008°30'0 0.0
2016-Dec-06 22:33N 53°20' E 008°30'0 0.0
2016-Dec-06 21:33N 53°20' E 008°30'0 0.0
2016-Dec-06 20:33N 53°20' E 008°30'0 0.0
2016-Dec-06 18:32N 53°20' E 008°30'0 0.0
2016-Dec-06 17:28N 53°20' E 008°30'0 0.0
2016-Dec-06 16:31N 53°20' E 008°30'0 0.0
2016-Dec-06 15:33N 53°20' E 008°30'0 0.0
2016-Dec-06 14:30N 53°20' E 008°30'0 0.0
2016-Dec-06 13:33N 53°20' E 008°30'0 0.0
2016-Dec-06 12:32N 53°20' E 008°30'0 0.0
2016-Dec-06 11:32N 53°20' E 008°30'0 0.0
2016-Dec-06 10:31N 53°20' E 008°30'0 0.0
2016-Dec-06 09:31N 53°20' E 008°30'0 0.0
2016-Dec-06 08:33N 53°20' E 008°30'0 0.0
2016-Dec-06 07:33N 53°20' E 008°30'0 0.0
2016-Dec-06 06:32N 53°20' E 008°30'0 0.0
2016-Dec-06 05:32N 53°20' E 008°30'7 6.7
2016-Dec-06 04:33N 53°27' E 008°29'9 9.3
2016-Dec-06 03:33N 53°36' E 008°30'1312.8
2016-Dec-06 02:33N 53°44' E 008°13'1312.7
2016-Dec-06 01:33N 53°52' E 007°56'15 7.3
2016-Dec-05 23:34N 53°60' E 008°17'1010.4
2016-Dec-05 22:33N 53°58' E 008°34'1313.1
2016-Dec-05 21:33N 53°50' E 008°52'1010.3
2016-Dec-05 20:33N 53°54' E 009°09'3 3.4
2016-Dec-05 19:33N 53°56' E 009°13'8 8.0
2016-Dec-05 18:32N 54°03' E 009°19'20 6.6
2016-Dec-05 15:28N 54°18' E 009°42'7 7.3
2016-Dec-05 14:33N 54°22' E 009°52'7 6.9
2016-Dec-05 13:33N 54°22' E 010°03'3 3.1
2016-Dec-05 12:34N 54°22' E 010°09'1 1.0
2016-Dec-05 11:34N 54°22' E 010°10'7 6.5
2016-Dec-05 10:34N 54°28' E 010°15'5 4.7
2016-Dec-05 09:31N 54°32' E 010°19'0 0.0
2016-Dec-05 08:28N 54°32' E 010°19'2 2.0
2016-Dec-05 07:33N 54°31' E 010°20'1111.2
2016-Dec-05 06:33N 54°35' E 010°38'1110.9
2016-Dec-05 05:33N 54°36' E 010°57'1010.3
2016-Dec-05 04:33N 54°35' E 011°15'1110.8
2016-Dec-05 03:33N 54°31' E 011°32'2110.5
2016-Dec-05 01:33N 54°27' E 012°07'1010.4
2016-Dec-05 00:33N 54°36' E 012°15'1110.7
2016-Dec-04 23:33N 54°43' E 012°30'4611.0
2016-Dec-04 19:25N 55°00' E 013°43'1011.0
2016-Dec-04 18:31N 55°04' E 013°59'1010.5
2016-Dec-04 17:33N 55°10' E 014°12'1111.0
2016-Dec-04 16:33N 55°19' E 014°24'1111.3
2016-Dec-04 15:34N 55°27' E 014°38'1111.3
2016-Dec-04 14:33N 55°33' E 014°55'1111.0
2016-Dec-04 13:33N 55°39' E 015°12'34611.1
2016-Dec-03 06:25N 59°35' E 023°02'1011.0
2016-Dec-03 05:32N 59°38' E 023°20'1111.1
2016-Dec-03 04:33N 59°41' E 023°41'1211.2
2016-Dec-03 03:28N 59°44' E 024°05'2211.1
2016-Dec-03 01:30N 59°49' E 024°47'1011.0
2016-Dec-03 00:33N 59°51' E 025°07'1111.1
2016-Dec-02 23:33N 59°54' E 025°29'3310.8
2016-Dec-02 20:29N 60°13' E 026°23'1111.5
2016-Dec-02 19:33N 60°20' E 026°38'1211.7
2016-Dec-02 18:33N 60°27' E 026°58'3 2.8
2016-Dec-02 17:33N 60°29' E 026°57'0 0.0
2016-Dec-02 16:32N 60°29' E 026°57'0 0.0
2016-Dec-02 15:32N 60°29' E 026°57'0 0.0
2016-Dec-02 14:31N 60°29' E 026°57'0 0.0
2016-Dec-02 13:31N 60°29' E 026°57'0 0.0
2016-Dec-02 12:31N 60°29' E 026°57'0 0.0
2016-Dec-02 11:33N 60°29' E 026°57'0 0.0
2016-Dec-02 10:33N 60°29' E 026°57'0 0.0
2016-Dec-02 09:32N 60°29' E 026°57'0 0.0
2016-Dec-02 08:32N 60°29' E 026°57'0 0.0
2016-Dec-02 07:31N 60°29' E 026°57'0 0.0
2016-Dec-02 06:31N 60°29' E 026°57'0 0.0
2016-Dec-02 05:31N 60°29' E 026°57'0 0.0
2016-Dec-02 04:33N 60°29' E 026°57'0 0.0
2016-Dec-02 03:33N 60°29' E 026°57'0 0.0
2016-Dec-02 02:32N 60°29' E 026°57'0 0.0
2016-Dec-02 01:29N 60°29' E 026°57'0 0.0
2016-Dec-02 00:31N 60°29' E 026°57'0 0.0
2016-Dec-01 23:31N 60°29' E 026°57'0 0.0
2016-Dec-01 22:31N 60°29' E 026°57'0 0.0
2016-Dec-01 21:33N 60°29' E 026°57'0 0.0
2016-Dec-01 20:33N 60°29' E 026°57'0 0.0
2016-Dec-01 19:32N 60°29' E 026°57'0 0.0
2016-Dec-01 18:32N 60°29' E 026°57'0 0.0
2016-Dec-01 17:31N 60°29' E 026°57'0 0.0
2016-Dec-01 16:31N 60°29' E 026°57'0 0.0
2016-Dec-01 15:30N 60°29' E 026°57'2 1.7
2016-Dec-01 14:33N 60°28' E 026°58'1 0.7
2016-Dec-01 13:33N 60°27' E 026°58'1211.7
2016-Dec-01 12:33N 60°21' E 026°39'1212.3
2016-Dec-01 11:33N 60°12' E 026°21'0 0.2
2016-Dec-01 10:17N 60°12' E 026°21'0 0.0
2016-Dec-01 09:29N 60°12' E 026°21'0 0.0
2016-Dec-01 08:29N 60°12' E 026°21'0 0.0
2016-Dec-01 07:28N 60°12' E 026°21'0 0.0
2016-Dec-01 06:31N 60°12' E 026°21'0 0.0
2016-Dec-01 05:33N 60°12' E 026°21'0 0.0
2016-Dec-01 04:27N 60°12' E 026°21'  
Track history (hours):
 
Tides and Currents Weather Stations Pressure Air Temp Water Temp Dewpoint Dewpoint Depression Visibility Wind Speed Wind Dir Waves Ship Positions

Cathma

Last reported at 2016-Dec-11 03:32 UTC. Time now 2016-Dec-11 04:16 UTC.
Position N 51°54' E 004°27'.

Length 112 m; draft 3.6 m.

Type: Cargo ship. MMSI: 306832000.

Date/timePositionNaut miles runAvg speedWind from/ knotsBaromVisibWave heightAir tempDewpointWater temp
2016-Dec-11 03:32N 51°54' E 004°27'0 0.0
2016-Dec-11 02:31N 51°54' E 004°27'0 0.0
2016-Dec-11 01:31N 51°54' E 004°27'0 0.0
2016-Dec-11 00:33N 51°54' E 004°27'0 0.0
2016-Dec-10 23:33N 51°54' E 004°27'0 0.0
2016-Dec-10 22:33N 51°54' E 004°27'0 0.0
2016-Dec-10 21:32N 51°54' E 004°27'0 0.0
2016-Dec-10 20:32N 51°54' E 004°27'3 2.7
2016-Dec-10 19:33N 51°54' E 004°23'9 9.2
2016-Dec-10 18:33N 51°58' E 004°09'1010.2
2016-Dec-10 17:33N 52°00' E 003°53'9 8.7
2016-Dec-10 16:33N 52°08' E 003°46'187 8.9
2016-Dec-09 19:33N 53°48' E 008°08'1111.2
2016-Dec-09 18:33N 53°41' E 008°22'1010.1
2016-Dec-09 17:33N 53°33' E 008°33'9 8.6
2016-Dec-09 16:33N 53°25' E 008°30'5 4.9
2016-Dec-09 15:33N 53°20' E 008°30'0 0.1
2016-Dec-09 14:28N 53°20' E 008°30'0 0.0
2016-Dec-09 13:31N 53°20' E 008°30'0 0.0
2016-Dec-09 12:33N 53°20' E 008°30'0 0.0
2016-Dec-09 11:30N 53°20' E 008°30'0 0.0
2016-Dec-09 10:17N 53°20' E 008°30'0 0.0
2016-Dec-09 09:32N 53°20' E 008°30'0 0.0
2016-Dec-09 08:32N 53°20' E 008°30'0 0.0
2016-Dec-09 07:28N 53°20' E 008°30'0 0.0
2016-Dec-09 06:31N 53°20' E 008°30'0 0.0
2016-Dec-09 05:33N 53°20' E 008°30'0 0.0
2016-Dec-09 04:33N 53°20' E 008°30'0 0.0
2016-Dec-09 03:32N 53°20' E 008°30'0 0.0
2016-Dec-09 02:26N 53°20' E 008°30'0 0.0
2016-Dec-09 00:31N 53°20' E 008°30'0 0.0
2016-Dec-08 23:31N 53°20' E 008°30'0 0.0
2016-Dec-08 22:27N 53°20' E 008°30'0 0.0
2016-Dec-08 21:27N 53°20' E 008°30'0 0.0
2016-Dec-08 20:11N 53°20' E 008°30'0 0.0
2016-Dec-08 19:29N 53°20' E 008°30'0 0.0
2016-Dec-08 18:31N 53°20' E 008°30'0 0.0
2016-Dec-08 17:31N 53°20' E 008°30'0 0.0
2016-Dec-08 16:28N 53°20' E 008°30'0 0.0
2016-Dec-08 15:33N 53°20' E 008°30'0 0.0
2016-Dec-08 14:33N 53°20' E 008°30'0 0.0
2016-Dec-08 13:14N 53°20' E 008°30'0 0.0
2016-Dec-08 12:32N 53°20' E 008°30'0 0.0
2016-Dec-08 11:28N 53°20' E 008°30'0 0.0
2016-Dec-08 10:31N 53°20' E 008°30'0 0.0
2016-Dec-08 09:31N 53°20' E 008°30'0 0.0
2016-Dec-08 08:33N 53°20' E 008°30'0 0.0
2016-Dec-08 07:27N 53°20' E 008°30'0 0.0
2016-Dec-08 06:23N 53°20' E 008°30'0 0.0
2016-Dec-08 05:32N 53°20' E 008°30'0 0.0
2016-Dec-08 04:19N 53°20' E 008°30'0 0.0
2016-Dec-08 03:31N 53°20' E 008°30'0 0.0
2016-Dec-08 02:31N 53°20' E 008°30'0 0.0
2016-Dec-08 01:33N 53°20' E 008°30'0 0.0
2016-Dec-08 00:33N 53°20' E 008°30'0 0.0
2016-Dec-07 23:26N 53°20' E 008°30'0 0.0
2016-Dec-07 22:32N 53°20' E 008°30'0 0.0
2016-Dec-07 21:31N 53°20' E 008°30'0 0.0
2016-Dec-07 20:31N 53°20' E 008°30'0 0.0
2016-Dec-07 19:34N 53°20' E 008°30'0 0.1
2016-Dec-07 18:33N 53°20' E 008°30'0 0.0
2016-Dec-07 17:33N 53°20' E 008°30'0 0.0
2016-Dec-07 16:32N 53°20' E 008°30'0 0.0
2016-Dec-07 15:32N 53°20' E 008°30'0 0.0
2016-Dec-07 14:31N 53°20' E 008°30'0 0.0
2016-Dec-07 13:31N 53°20' E 008°30'0 0.0
2016-Dec-07 12:33N 53°20' E 008°30'0 0.0
2016-Dec-07 11:33N 53°20' E 008°30'0 0.0
2016-Dec-07 10:33N 53°20' E 008°30'0 0.0
2016-Dec-07 09:32N 53°20' E 008°30'0 0.0
2016-Dec-07 08:32N 53°20' E 008°30'0 0.0
2016-Dec-07 07:31N 53°20' E 008°30'0 0.0
2016-Dec-07 06:31N 53°20' E 008°30'0 0.0
2016-Dec-07 05:33N 53°20' E 008°30'0 0.0
2016-Dec-07 04:33N 53°20' E 008°30'0 0.0
2016-Dec-07 03:33N 53°20' E 008°30'0 0.0
2016-Dec-07 02:32N 53°20' E 008°30'0 0.0
2016-Dec-07 01:32N 53°20' E 008°30'0 0.0
2016-Dec-07 00:31N 53°20' E 008°30'0 0.0
2016-Dec-06 23:31N 53°20' E 008°30'0 0.0
2016-Dec-06 22:33N 53°20' E 008°30'0 0.0
2016-Dec-06 21:33N 53°20' E 008°30'0 0.0
2016-Dec-06 20:33N 53°20' E 008°30'0 0.0
2016-Dec-06 18:32N 53°20' E 008°30'0 0.0
2016-Dec-06 17:28N 53°20' E 008°30'0 0.0
2016-Dec-06 16:31N 53°20' E 008°30'0 0.0
2016-Dec-06 15:33N 53°20' E 008°30'0 0.0
2016-Dec-06 14:30N 53°20' E 008°30'0 0.0
2016-Dec-06 13:33N 53°20' E 008°30'0 0.0
2016-Dec-06 12:32N 53°20' E 008°30'0 0.0
2016-Dec-06 11:32N 53°20' E 008°30'0 0.0
2016-Dec-06 10:31N 53°20' E 008°30'0 0.0
2016-Dec-06 09:31N 53°20' E 008°30'0 0.0
2016-Dec-06 08:33N 53°20' E 008°30'0 0.0
2016-Dec-06 07:33N 53°20' E 008°30'0 0.0
2016-Dec-06 06:32N 53°20' E 008°30'0 0.0
2016-Dec-06 05:32N 53°20' E 008°30'7 6.7
2016-Dec-06 04:33N 53°27' E 008°29'9 9.3
2016-Dec-06 03:33N 53°36' E 008°30'1312.8
2016-Dec-06 02:33N 53°44' E 008°13'1312.7
2016-Dec-06 01:33N 53°52' E 007°56'15 7.3
2016-Dec-05 23:34N 53°60' E 008°17'1010.4
2016-Dec-05 22:33N 53°58' E 008°34'1313.1
2016-Dec-05 21:33N 53°50' E 008°52'1010.3
2016-Dec-05 20:33N 53°54' E 009°09'3 3.4
2016-Dec-05 19:33N 53°56' E 009°13'8 8.0
2016-Dec-05 18:32N 54°03' E 009°19'20 6.6
2016-Dec-05 15:28N 54°18' E 009°42'7 7.3
2016-Dec-05 14:33N 54°22' E 009°52'7 6.9
2016-Dec-05 13:33N 54°22' E 010°03'3 3.1
2016-Dec-05 12:34N 54°22' E 010°09'1 1.0
2016-Dec-05 11:34N 54°22' E 010°10'7 6.5
2016-Dec-05 10:34N 54°28' E 010°15'5 4.7
2016-Dec-05 09:31N 54°32' E 010°19'0 0.0
2016-Dec-05 08:28N 54°32' E 010°19'2 2.0
2016-Dec-05 07:33N 54°31' E 010°20'1111.2
2016-Dec-05 06:33N 54°35' E 010°38'1110.9
2016-Dec-05 05:33N 54°36' E 010°57'1010.3
2016-Dec-05 04:33N 54°35' E 011°15'1110.8
2016-Dec-05 03:33N 54°31' E 011°32'2110.5
2016-Dec-05 01:33N 54°27' E 012°07'1010.4
2016-Dec-05 00:33N 54°36' E 012°15'1110.7
2016-Dec-04 23:33N 54°43' E 012°30'4611.0
2016-Dec-04 19:25N 55°00' E 013°43'1011.0
2016-Dec-04 18:31N 55°04' E 013°59'1010.5
2016-Dec-04 17:33N 55°10' E 014°12'1111.0
2016-Dec-04 16:33N 55°19' E 014°24'1111.3
2016-Dec-04 15:34N 55°27' E 014°38'1111.3
2016-Dec-04 14:33N 55°33' E 014°55'1111.0
2016-Dec-04 13:33N 55°39' E 015°12'34611.1
2016-Dec-03 06:25N 59°35' E 023°02'1011.0
2016-Dec-03 05:32N 59°38' E 023°20'1111.1
2016-Dec-03 04:33N 59°41' E 023°41'1211.2
2016-Dec-03 03:28N 59°44' E 024°05'2211.1
2016-Dec-03 01:30N 59°49' E 024°47'1011.0
2016-Dec-03 00:33N 59°51' E 025°07'1111.1
2016-Dec-02 23:33N 59°54' E 025°29'3310.8
2016-Dec-02 20:29N 60°13' E 026°23'1111.5
2016-Dec-02 19:33N 60°20' E 026°38'1211.7
2016-Dec-02 18:33N 60°27' E 026°58'3 2.8
2016-Dec-02 17:33N 60°29' E 026°57'0 0.0
2016-Dec-02 16:32N 60°29' E 026°57'0 0.0
2016-Dec-02 15:32N 60°29' E 026°57'0 0.0
2016-Dec-02 14:31N 60°29' E 026°57'0 0.0
2016-Dec-02 13:31N 60°29' E 026°57'0 0.0
2016-Dec-02 12:31N 60°29' E 026°57'0 0.0
2016-Dec-02 11:33N 60°29' E 026°57'0 0.0
2016-Dec-02 10:33N 60°29' E 026°57'0 0.0
2016-Dec-02 09:32N 60°29' E 026°57'0 0.0
2016-Dec-02 08:32N 60°29' E 026°57'0 0.0
2016-Dec-02 07:31N 60°29' E 026°57'0 0.0
2016-Dec-02 06:31N 60°29' E 026°57'0 0.0
2016-Dec-02 05:31N 60°29' E 026°57'0 0.0
2016-Dec-02 04:33N 60°29' E 026°57'0 0.0
2016-Dec-02 03:33N 60°29' E 026°57'0 0.0
2016-Dec-02 02:32N 60°29' E 026°57'0 0.0
2016-Dec-02 01:29N 60°29' E 026°57'0 0.0
2016-Dec-02 00:31N 60°29' E 026°57'0 0.0
2016-Dec-01 23:31N 60°29' E 026°57'0 0.0
2016-Dec-01 22:31N 60°29' E 026°57'0 0.0
2016-Dec-01 21:33N 60°29' E 026°57'0 0.0
2016-Dec-01 20:33N 60°29' E 026°57'0 0.0
2016-Dec-01 19:32N 60°29' E 026°57'0 0.0
2016-Dec-01 18:32N 60°29' E 026°57'0 0.0
2016-Dec-01 17:31N 60°29' E 026°57'0 0.0
2016-Dec-01 16:31N 60°29' E 026°57'0 0.0
2016-Dec-01 15:30N 60°29' E 026°57'2 1.7
2016-Dec-01 14:33N 60°28' E 026°58'1 0.7
2016-Dec-01 13:33N 60°27' E 026°58'1211.7
2016-Dec-01 12:33N 60°21' E 026°39'1212.3
2016-Dec-01 11:33N 60°12' E 026°21'0 0.2
2016-Dec-01 10:17N 60°12' E 026°21'0 0.0
2016-Dec-01 09:29N 60°12' E 026°21'0 0.0
2016-Dec-01 08:29N 60°12' E 026°21'0 0.0
2016-Dec-01 07:28N 60°12' E 026°21'0 0.0
2016-Dec-01 06:31N 60°12' E 026°21'0 0.0
2016-Dec-01 05:33N 60°12' E 026°21'0 0.0
2016-Dec-01 04:27N 60°12' E 026°21'  

Dump ship's entire track history